Hurleyville, New York
Current Conditions -  °F | °C
As of 4:55 AM on Sunday 21 Dec 2014 (Local Time) from KMSV Reporting Station
Overcast Overcast  
Wind Chill: 25°   Ceiling: 400
Heat Index: 25°   Visibility: 3mi
Dew Point: 25°   Wind: 3mph
Humidity: 100%   Direction: 300°WNW
Pressure: 30.22"   Gusts: NA
Location:  41.74°N, 74.67°W
Report Text: KMSV 210955Z AUTO 30003KT 3SM BKN004 OVC008 M04/M04 A3022 RMK AO1
Loading
Personal Weather Stations






























Interactive Weather Map New forecast layout! Learn more

10-Day Weather Forecast

Advertisements
Track Severe Weather on mobile